| Date | Time | Temp. (oF) | Dew Point (oF) | Rel. Hum. (%) | Press. (in.) | Wind Dir. | Wind Speed (mph) | Hourly Rainfall (in.) |
|
|---|---|---|---|---|---|---|---|---|---|
| 1 | 09/07 | 00:00 | 60 | 55 | 86 | 30.23 | ESE | 0 | 0.00 |
| 2 | 09/06 | 23:00 | 62 | 56 | 81 | 30.22 | ESE | 0 | 0.00 |
| 3 | 09/06 | 22:00 | 64 | 55 | 75 | 30.21 | ESE | 0 | 0.00 |
| 4 | 09/06 | 21:00 | 68 | 54 | 63 | 30.19 | ESE | 0 | 0.00 |
| 5 | 09/06 | 20:00 | 73 | 53 | 51 | 30.18 | ESE | 0 | 0.00 |
| 6 | 09/06 | 19:00 | 77 | 51 | 42 | 30.15 | ESE | 1 | 0.00 |
| 7 | 09/06 | 18:00 | 80 | 51 | 37 | 30.14 | NNE | 1 | 0.00 |
| 8 | 09/06 | 17:00 | 80 | 49 | 35 | 30.14 | SSE | 2 | 0.00 |
| 9 | 09/06 | 16:00 | 80 | 51 | 38 | 30.15 | NE | 6 | 0.00 |
| 10 | 09/06 | 15:00 | 79 | 50 | 37 | 30.17 | W | 3 | 0.00 |
| 11 | 09/06 | 14:00 | 79 | 54 | 43 | 30.18 | S | 8 | 0.00 |
| 12 | 09/06 | 13:00 | 76 | 54 | 47 | 30.20 | N | 5 | 0.00 |
| 13 | 09/06 | 12:00 | 74 | 53 | 49 | 30.21 | ESE | 2 | 0.00 |
| 14 | 09/06 | 11:00 | 71 | 52 | 52 | 30.22 | NNE | 7 | 0.00 |
| 15 | 09/06 | 10:00 | 68 | 52 | 58 | 30.22 | N | 5 | 0.00 |
| 16 | 09/06 | 09:00 | 63 | 50 | 64 | 30.21 | N | 6 | 0.00 |
| 17 | 09/06 | 08:00 | 56 | 54 | 93 | 30.20 | NNW | 2 | 0.00 |
| 18 | 09/06 | 07:00 | 54 | 50 | 89 | 30.19 | NW | 0 | 0.00 |
| 19 | 09/06 | 06:00 | 56 | 50 | 83 | 30.18 | NW | 0 | 0.00 |
| 20 | 09/06 | 05:00 | 60 | 52 | 75 | 30.16 | NW | 0 | 0.00 |
| 21 | 09/06 | 04:00 | 62 | 51 | 68 | 30.15 | NW | 3 | 0.00 |
| 22 | 09/06 | 03:00 | 62 | 53 | 73 | 30.15 | N | 4 | 0.00 |
| 23 | 09/06 | 02:00 | 63 | 54 | 75 | 30.14 | NNE | 2 | 0.00 |
| 24 | 09/06 | 01:00 | 64 | 57 | 80 | 30.13 | NE | 1 | 0.00 |